Time;durP1;ratioP1;P1;durP2;ratioP2;P2;SDS_P1;SDS_P2;PMS_P1;PMS_P2;Temp;Humidity;BMP_temperature;BMP_pressure;BME280_temperature;BME280_humidity;BME280_pressure;Samples;Min_cycle;Max_cycle;Signal;HPM_P1;HPM_P2
2021/12/29 00:00:05;;;;;;;11.25;6.97;;;;;;;-2.74;77.14;100245.12;1749321;81;21424;-52
2021/12/29 00:03:15;;;;;;;10.82;7.15;;;;;;;-2.76;77.16;100241.70;1741234;82;21817;-51
2021/12/29 00:06:23;;;;;;;11.55;6.65;;;;;;;-2.72;77.24;100231.62;1737918;82;21237;-51
2021/12/29 00:09:32;;;;;;;11.28;7.10;;;;;;;-2.71;77.18;100234.71;1737783;82;21757;-50
2021/12/29 00:12:41;;;;;;;9.65;6.70;;;;;;;-2.70;77.08;100229.25;1738197;82;21335;-51
2021/12/29 00:15:57;;;;;;;10.85;6.22;;;;;;;-2.70;76.96;100238.62;1737876;81;21225;-52
2021/12/29 00:18:58;;;;;;;9.45;6.03;;;;;;;-2.68;76.88;100222.46;1737674;82;21205;-52
2021/12/29 00:22:03;;;;;;;10.32;6.65;;;;;;;-2.72;76.58;100233.84;1737710;82;21343;-51
2021/12/29 00:25:08;;;;;;;10.30;6.45;;;;;;;-2.74;76.55;100230.39;1737681;82;21355;-50
2021/12/29 00:28:14;;;;;;;13.15;7.47;;;;;;;-2.72;76.62;100223.59;1737024;80;21290;-51
2021/12/29 00:31:20;;;;;;;13.35;6.47;;;;;;;-2.74;76.57;100219.67;1744551;82;21223;-51
2021/12/29 00:34:50;;;;;;;12.18;6.70;;;;;;;-2.71;76.85;100215.45;1745441;81;21386;-52
2021/12/29 00:38:06;;;;;;;8.20;5.87;;;;;;;-2.69;76.62;100210.88;1706673;84;21317;-51
2021/12/29 00:41:15;;;;;;;10.08;6.65;;;;;;;-2.71;76.52;100215.96;1717262;82;21264;-50
2021/12/29 00:44:38;;;;;;;;;;;;;;;-2.71;76.35;100210.61;1736444;82;21211;-50
2021/12/29 00:47:45;;;;;;;11.15;6.33;;;;;;;-2.81;76.10;100200.95;1742862;82;20630;-51
2021/12/29 00:50:51;;;;;;;11.25;6.87;;;;;;;-2.85;76.13;100203.42;1745052;82;21208;-49
2021/12/29 00:53:59;;;;;;;11.48;7.22;;;;;;;-2.81;76.22;100195.59;1736956;82;21256;-50
2021/12/29 00:57:06;;;;;;;12.88;7.10;;;;;;;-2.73;76.17;100185.73;1745265;82;21406;-52
2021/12/29 01:00:16;;;;;;;9.30;5.97;;;;;;;-2.71;76.00;100188.67;1712023;83;21219;-50
2021/12/29 01:03:23;;;;;;;13.22;7.22;;;;;;;-2.73;75.71;100185.26;1744220;82;21251;-53
2021/12/29 01:06:29;;;;;;;11.50;7.10;;;;;;;-2.71;75.74;100177.96;1705415;83;21413;-50
2021/12/29 01:09:36;;;;;;;10.68;6.75;;;;;;;-2.74;75.44;100182.18;1699621;84;21207;-52
2021/12/29 01:12:51;;;;;;;11.70;6.37;;;;;;;-2.82;75.28;100179.13;1676135;85;21297;-50
2021/12/29 01:16:08;;;;;;;10.65;6.53;;;;;;;-2.78;75.54;100187.36;1704541;83;21236;-51
2021/12/29 01:19:11;;;;;;;9.30;6.47;;;;;;;-2.74;75.59;100180.84;1676545;84;21245;-50
2021/12/29 01:22:19;;;;;;;10.65;6.87;;;;;;;-2.68;75.51;100188.48;1705403;82;21414;-50
2021/12/29 01:25:25;;;;;;;10.43;6.87;;;;;;;-2.69;75.23;100186.77;1736889;82;21252;-54
2021/12/29 01:28:31;;;;;;;12.68;7.15;;;;;;;-2.72;75.14;100186.09;1737057;82;21215;-53
2021/12/29 01:31:37;;;;;;;10.30;7.15;;;;;;;-2.74;75.12;100190.72;1768827;80;21880;-50
2021/12/29 01:34:44;;;;;;;11.55;7.15;;;;;;;-2.76;75.08;100193.49;1751437;81;21157;-52
2021/12/29 01:37:53;;;;;;;11.70;7.33;;;;;;;-2.72;75.21;100186.97;1738514;82;21197;-51
2021/12/29 01:41:03;;;;;;;10.48;6.60;;;;;;;-2.66;75.13;100193.27;1704654;84;21430;-51
2021/12/29 01:44:11;;;;;;;13.05;6.60;;;;;;;-2.64;75.04;100186.47;1735566;82;21410;-51
2021/12/29 01:47:17;;;;;;;9.83;6.20;;;;;;;-2.59;74.95;100187.04;1704789;83;21387;-50
2021/12/29 01:50:30;;;;;;;10.28;6.75;;;;;;;-2.62;74.58;100189.92;1735553;82;21209;-51
2021/12/29 01:53:46;;;;;;;10.45;6.65;;;;;;;-2.68;74.43;100192.50;1708795;84;21872;-50
2021/12/29 01:56:46;;;;;;;11.90;6.78;;;;;;;-2.65;74.50;100189.66;1737325;82;21232;-50
2021/12/29 01:59:55;;;;;;;12.50;7.17;;;;;;;-2.69;74.39;100199.30;1709754;83;21872;-50
2021/12/29 02:03:03;;;;;;;11.05;6.37;;;;;;;-2.64;74.48;100209.23;1735500;82;21212;-51
2021/12/29 02:06:10;;;;;;;13.95;7.95;;;;;;;-2.59;74.35;100207.13;1704802;83;21367;-50
2021/12/29 02:09:16;;;;;;;11.25;7.05;;;;;;;-2.64;74.12;100204.75;1735251;82;21339;-49
2021/12/29 02:12:23;;;;;;;11.75;7.42;;;;;;;-2.67;74.15;100207.63;1705054;83;21265;-51
2021/12/29 02:15:28;;;;;;;10.82;6.62;;;;;;;-2.63;74.26;100201.61;1735479;82;21422;-52
2021/12/29 02:18:37;;;;;;;11.45;6.95;;;;;;;-2.62;74.18;100199.30;1704269;83;21201;-51
2021/12/29 02:21:43;;;;;;;13.18;6.95;;;;;;;-2.60;74.17;100203.59;1713992;83;21271;-51
2021/12/29 02:24:54;;;;;;;11.35;6.08;;;;;;;-2.56;74.15;100205.12;1757063;80;21220;-50
2021/12/29 02:28:02;;;;;;;12.43;7.53;;;;;;;-2.58;73.85;100195.45;1737491;82;21198;-51
2021/12/29 02:31:08;;;;;;;11.30;6.42;;;;;;;-2.62;73.98;100197.48;1739804;80;21308;-52
2021/12/29 02:34:16;;;;;;;10.45;6.58;;;;;;;-2.56;74.20;100191.73;1780322;80;21815;-51
2021/12/29 02:37:23;;;;;;;12.55;7.10;;;;;;;-2.53;74.09;100190.66;1767983;80;21373;-50
2021/12/29 02:40:31;;;;;;;12.80;6.92;;;;;;;-2.53;74.04;100196.89;1785464;80;21231;-51
2021/12/29 02:43:40;;;;;;;11.85;6.78;;;;;;;-2.51;74.19;100202.14;1775063;80;21216;-51
2021/12/29 02:46:46;;;;;;;13.18;6.70;;;;;;;-2.47;74.32;100183.56;1708424;84;21398;-53
2021/12/29 02:49:55;;;;;;;10.82;6.17;;;;;;;-2.44;74.36;100188.25;1709081;83;21363;-51
2021/12/29 02:53:00;;;;;;;12.78;6.58;;;;;;;-2.41;74.41;100174.65;1719668;82;21379;-49
2021/12/29 02:56:06;;;;;;;10.72;6.45;;;;;;;-2.40;74.38;100176.39;1758374;80;21343;-51
2021/12/29 02:59:13;;;;;;;13.05;6.90;;;;;;;-2.39;74.49;100171.40;1786921;80;21717;-51
2021/12/29 03:02:21;;;;;;;12.63;7.12;;;;;;;-2.41;74.53;100175.16;1801891;79;21425;-51
2021/12/29 03:05:28;;;;;;;9.18;6.22;;;;;;;-2.40;74.67;100178.20;1800872;79;21801;-52
2021/12/29 03:08:33;;;;;;;11.93;6.87;;;;;;;-2.39;74.74;100187.48;1800808;79;21389;-51
2021/12/29 03:11:43;;;;;;;12.45;6.92;;;;;;;-2.38;74.75;100181.14;1767889;81;21245;-50
2021/12/29 03:15:02;;;;;;;12.13;8.08;;;;;;;-2.43;74.79;100181.95;1768080;80;21225;-51
2021/12/29 03:18:11;;;;;;;11.28;6.55;;;;;;;-2.42;74.97;100183.66;1768143;80;21686;-51
2021/12/29 03:21:18;;;;;;;13.03;6.97;;;;;;;-2.38;75.11;100182.98;1758052;80;21312;-50
2021/12/29 03:24:27;;;;;;;13.13;6.97;;;;;;;-2.35;75.07;100190.82;1767520;80;21202;-51
2021/12/29 03:27:34;;;;;;;13.68;6.83;;;;;;;-2.36;75.17;100184.59;1767476;80;21316;-51
2021/12/29 03:30:43;;;;;;;13.10;7.10;;;;;;;-2.33;75.23;100188.41;1767587;80;21260;-52
2021/12/29 03:33:50;;;;;;;11.50;7.20;;;;;;;-2.28;75.30;100189.45;1780337;79;21889;-51
2021/12/29 03:36:57;;;;;;;11.50;6.28;;;;;;;-2.27;75.24;100179.13;1801673;78;21349;-51
2021/12/29 03:40:04;;;;;;;16.00;7.67;;;;;;;-2.30;75.10;100190.89;1800883;79;21335;-50
2021/12/29 03:43:15;;;;;;;13.48;7.40;;;;;;;-2.33;75.19;100197.80;1788061;78;21280;-55
2021/12/29 03:46:21;;;;;;;14.85;7.65;;;;;;;-2.31;75.31;100190.52;1777208;79;21390;-52
2021/12/29 03:49:27;;;;;;;13.72;7.37;;;;;;;-2.34;75.30;100190.72;1782223;80;21817;-53
2021/12/29 03:52:34;;;;;;;12.23;6.85;;;;;;;-2.38;75.29;100197.22;1775749;80;21366;-53
2021/12/29 03:55:41;;;;;;;10.82;6.42;;;;;;;-2.39;75.31;100200.88;1738271;82;21275;-50
2021/12/29 03:58:47;;;;;;;13.65;7.12;;;;;;;-2.51;75.33;100208.38;1782610;79;21381;-52
2021/12/29 04:01:54;;;;;;;11.15;7.40;;;;;;;-2.55;75.59;100206.00;1800919;79;21224;-51
2021/12/29 04:05:01;;;;;;;12.90;8.35;;;;;;;-2.61;75.76;100209.91;1800986;79;22164;-52
2021/12/29 04:08:07;;;;;;;12.50;7.72;;;;;;;-2.61;75.98;100211.25;1800635;79;21185;-52
2021/12/29 04:11:13;;;;;;;13.58;6.95;;;;;;;-2.57;76.26;100208.78;1768048;81;21582;-51
2021/12/29 04:14:20;;;;;;;11.70;6.78;;;;;;;-2.52;76.34;100206.63;1757461;81;21177;-51
2021/12/29 04:17:36;;;;;;;13.50;7.97;;;;;;;-2.46;76.36;100199.57;1771160;79;21324;-51
2021/12/29 04:20:55;;;;;;;12.28;6.95;;;;;;;-2.40;76.35;100202.31;1782981;79;21958;-51
2021/12/29 04:24:01;;;;;;;12.63;6.78;;;;;;;-2.37;76.32;100198.97;1789176;80;21906;-51
2021/12/29 04:27:06;;;;;;;12.28;6.70;;;;;;;-2.33;76.23;100207.17;1745966;82;21243;-52
2021/12/29 04:30:16;;;;;;;12.80;6.78;;;;;;;-2.38;75.90;100199.91;1738654;82;22125;-51
2021/12/29 04:33:24;;;;;;;12.98;6.55;;;;;;;-2.39;75.98;100197.33;1801549;78;21371;-50
2021/12/29 04:36:30;;;;;;;11.28;7.87;;;;;;;-2.44;75.95;100198.97;1754930;80;21324;-52
2021/12/29 04:39:37;;;;;;;10.45;7.03;;;;;;;-2.41;76.09;100197.42;1768169;80;21332;-53
2021/12/29 04:42:44;;;;;;;9.93;6.95;;;;;;;-2.38;76.10;100196.39;1784228;80;21335;-52
2021/12/29 04:45:50;;;;;;;13.55;6.75;;;;;;;-2.36;76.14;100189.12;1816856;79;21199;-51
2021/12/29 04:49:01;;;;;;;9.53;6.78;;;;;;;-2.34;76.12;100189.38;1780927;80;21339;-51
2021/12/29 04:52:07;;;;;;;9.40;7.08;;;;;;;-2.31;76.07;100189.65;1767307;80;21832;-51
2021/12/29 04:55:14;;;;;;;10.80;6.83;;;;;;;-2.32;76.01;100186.13;1737415;81;21265;-52
2021/12/29 04:58:21;;;;;;;11.43;7.03;;;;;;;-2.28;76.08;100183.61;1764453;80;21331;-52
2021/12/29 05:01:27;;;;;;;11.48;7.40;;;;;;;-2.28;76.00;100194.34;1736911;82;21232;-53
2021/12/29 05:04:35;;;;;;;13.68;7.40;;;;;;;-2.31;75.99;100185.16;1764807;80;21648;-52
2021/12/29 05:11:13;;;;;;;13.22;8.60;;;;;;;-2.44;76.02;100201.64;1795262;79;21358;-52
2021/12/29 05:14:19;;;;;;;17.87;9.65;;;;;;;-2.43;76.26;100206.53;1763814;80;21812;-51
2021/12/29 05:17:24;;;;;;;13.65;8.63;;;;;;;-2.43;76.40;100206.07;1768525;80;21316;-51
2021/12/29 05:20:35;;;;;;;14.90;8.60;;;;;;;-2.35;76.49;100206.44;1768012;80;21351;-53
2021/12/29 05:23:40;;;;;;;18.90;9.43;;;;;;;-2.33;76.42;100209.85;1767849;80;21845;-52
2021/12/29 05:26:46;;;;;;;17.77;9.25;;;;;;;-2.30;76.45;100219.53;1767117;80;21781;-52
2021/12/29 05:29:55;;;;;;;18.87;9.58;;;;;;;-2.31;76.32;100217.32;1766236;80;21381;-51
2021/12/29 05:33:01;;;;;;;16.62;9.10;;;;;;;-2.32;76.33;100223.66;1767523;81;21304;-51
2021/12/29 05:36:06;;;;;;;14.25;8.50;;;;;;;-2.28;76.42;100228.31;1765878;80;21346;-51
2021/12/29 05:39:11;;;;;;;12.15;7.50;;;;;;;-2.24;76.44;100227.17;1767918;80;21338;-52
2021/12/29 05:42:18;;;;;;;14.33;8.63;;;;;;;-2.22;76.35;100215.38;1767751;80;21274;-51
2021/12/29 05:45:23;;;;;;;11.18;7.83;;;;;;;-2.26;76.15;100227.27;1767034;81;21969;-50
2021/12/29 05:48:28;;;;;;;12.85;8.95;;;;;;;-2.27;76.28;100223.35;1766655;81;21342;-53
2021/12/29 05:51:33;;;;;;;16.15;9.45;;;;;;;-2.27;76.25;100221.55;1766452;81;21396;-51
2021/12/29 05:54:38;;;;;;;16.67;11.00;;;;;;;-2.27;76.30;100229.59;1766573;80;21843;-51
2021/12/29 05:57:45;;;;;;;19.35;12.90;;;;;;;-2.25;76.33;100226.30;1765262;80;21211;-52
2021/12/29 06:00:59;;;;;;;15.43;10.65;;;;;;;-2.22;76.42;100224.75;1766779;81;21453;-52
2021/12/29 06:04:12;;;;;;;19.45;11.97;;;;;;;-2.14;76.43;100225.12;1764660;81;21165;-52
2021/12/29 06:07:25;;;;;;;17.17;10.58;;;;;;;-2.14;76.18;100218.92;1738491;79;21256;-52
2021/12/29 06:10:31;;;;;;;20.23;11.73;;;;;;;-2.14;76.29;100221.60;1758034;79;21608;-52
2021/12/29 06:13:41;;;;;;;15.28;10.25;;;;;;;-2.22;75.95;100212.69;1783379;79;21330;-51
2021/12/29 06:16:45;;;;;;;17.15;10.63;;;;;;;-2.29;76.19;100214.07;1773069;79;21263;-50
2021/12/29 06:19:53;;;;;;;17.23;9.13;;;;;;;-2.29;76.45;100212.73;1802955;79;21741;-56
2021/12/29 06:23:03;;;;;;;15.20;9.88;;;;;;;-2.26;76.52;100220.57;1763032;80;21200;-54
2021/12/29 06:26:11;;;;;;;18.80;10.75;;;;;;;-2.26;76.61;100225.06;1715374;82;21217;-55
2021/12/29 06:29:17;;;;;;;18.73;10.80;;;;;;;-2.22;76.71;100228.78;1799120;78;21223;-55
2021/12/29 06:32:25;;;;;;;19.40;10.45;;;;;;;-2.14;76.84;100235.84;1802726;78;21175;-55
2021/12/29 06:35:31;;;;;;;20.68;10.58;;;;;;;-2.06;76.66;100236.20;1781020;80;22170;-54
2021/12/29 06:38:36;;;;;;;21.23;12.85;;;;;;;-1.99;76.57;100244.71;1778241;79;21208;-55
2021/12/29 06:41:41;;;;;;;23.80;13.30;;;;;;;-1.94;76.41;100243.47;1796482;79;21204;-54
2021/12/29 06:44:48;;;;;;;20.80;13.03;;;;;;;-1.88;76.41;100240.37;1768305;81;21382;-54
2021/12/29 06:47:55;;;;;;;24.23;13.60;;;;;;;-1.89;76.04;100243.99;1748759;80;21216;-55
2021/12/29 06:51:00;;;;;;;20.12;12.23;;;;;;;-1.89;75.86;100245.84;1799304;79;21884;-54
2021/12/29 06:54:08;;;;;;;17.40;11.93;;;;;;;-1.83;76.01;100246.30;1785599;80;21603;-55
2021/12/29 06:57:17;;;;;;;20.65;13.78;;;;;;;-1.72;76.06;100242.89;1787900;80;21337;-55
2021/12/29 07:00:26;;;;;;;22.90;12.45;;;;;;;-1.64;75.93;100244.11;1768234;80;21184;-55
2021/12/29 07:03:33;;;;;;;15.08;9.23;;;;;;;-1.58;75.50;100242.35;1738234;81;21312;-55
2021/12/29 07:06:38;;;;;;;17.12;9.90;;;;;;;-1.61;75.31;100238.53;1737639;81;21453;-56
2021/12/29 07:09:43;;;;;;;14.85;9.45;;;;;;;-1.60;75.14;100237.56;1741899;81;21924;-56
2021/12/29 07:12:50;;;;;;;17.42;9.85;;;;;;;-1.56;75.14;100236.41;1737298;81;21201;-56
2021/12/29 07:15:57;;;;;;;16.87;9.55;;;;;;;-1.48;75.03;100235.88;1759948;81;21387;-56
2021/12/29 07:19:05;;;;;;;17.92;10.53;;;;;;;-1.44;74.70;100235.20;1757220;81;21779;-56
2021/12/29 07:22:10;;;;;;;15.32;10.70;;;;;;;-1.48;74.37;100240.37;1765724;80;21381;-55
2021/12/29 07:25:22;;;;;;;16.00;10.53;;;;;;;-1.49;74.43;100239.50;1766315;80;21713;-56
2021/12/29 07:28:27;;;;;;;17.52;10.48;;;;;;;-1.41;74.37;100240.35;1751889;81;21201;-54
2021/12/29 07:31:33;;;;;;;18.90;10.68;;;;;;;-1.39;74.28;100231.69;1765609;80;21887;-56
2021/12/29 07:34:40;;;;;;;17.85;10.53;;;;;;;-1.30;74.38;100235.11;1765813;80;21193;-56
2021/12/29 07:37:47;;;;;;;20.88;11.80;;;;;;;-1.20;74.20;100228.99;1764110;79;21287;-57
2021/12/29 07:40:54;;;;;;;18.48;11.95;;;;;;;-1.14;73.90;100237.13;1745077;79;21188;-55
2021/12/29 07:44:04;;;;;;;19.15;10.68;;;;;;;-1.08;73.69;100251.47;1816295;78;21733;-56
2021/12/29 07:47:11;;;;;;;19.17;10.98;;;;;;;-1.02;73.67;100247.88;1840723;77;21701;-56
2021/12/29 07:50:24;;;;;;;25.30;11.95;;;;;;;-0.90;73.56;100251.51;1840575;77;21240;-55
2021/12/29 07:53:34;;;;;;;29.10;12.63;;;;;;;-0.83;73.20;100255.50;1827109;77;21269;-56
2021/12/29 07:56:40;;;;;;;28.23;13.62;;;;;;;-0.82;72.91;100255.86;1783391;80;21215;-56
2021/12/29 07:59:47;;;;;;;25.95;12.75;;;;;;;-0.77;72.74;100260.44;1789188;79;21192;-55
2021/12/29 08:02:57;;;;;;;19.00;10.88;;;;;;;-0.73;72.60;100274.05;1735578;82;21688;-56
2021/12/29 08:06:04;;;;;;;18.55;11.20;;;;;;;-0.75;72.12;100268.78;1741157;81;21219;-55
2021/12/29 08:09:09;;;;;;;23.27;14.07;;;;;;;-0.75;72.12;100271.95;1765115;81;21247;-55
2021/12/29 08:12:18;;;;;;;24.85;13.45;;;;;;;-0.75;71.97;100266.58;1765881;81;21197;-55
2021/12/29 08:15:32;;;;;;;32.88;18.50;;;;;;;-0.76;71.83;100267.55;1765622;80;21745;-55
2021/12/29 08:18:56;;;;;;;42.83;21.17;;;;;;;-0.73;71.99;100270.02;1750256;81;21186;-54
2021/12/29 08:22:03;;;;;;;35.10;18.95;;;;;;;-0.65;71.79;100277.06;1765557;80;21359;-55
2021/12/29 08:25:07;;;;;;;32.45;17.30;;;;;;;-0.69;71.62;100283.60;1767685;80;21346;-55
2021/12/29 08:28:13;;;;;;;29.75;18.55;;;;;;;-0.71;71.68;100276.12;1766506;80;21869;-55
2021/12/29 08:31:20;;;;;;;32.35;19.30;;;;;;;-0.68;71.77;100272.74;1767481;81;21378;-55
2021/12/29 08:34:28;;;;;;;30.70;17.92;;;;;;;-0.63;71.44;100271.06;1767912;80;21189;-55
2021/12/29 08:37:34;;;;;;;35.68;20.95;;;;;;;-0.74;71.43;100270.49;1767091;80;21205;-56
2021/12/29 08:40:39;;;;;;;51.02;30.15;;;;;;;-0.71;71.40;100273.44;1767998;79;21221;-56
2021/12/29 08:43:47;;;;;;;57.05;35.08;;;;;;;-0.70;71.64;100276.52;1764662;80;21792;-56
2021/12/29 08:46:52;;;;;;;57.53;34.20;;;;;;;-0.67;71.63;100274.95;1765284;80;21252;-56
2021/12/29 08:49:58;;;;;;;44.05;26.33;;;;;;;-0.57;71.80;100269.31;1772623;80;21201;-56
2021/12/29 08:53:04;;;;;;;37.10;22.22;;;;;;;-0.43;71.88;100266.50;1776413;80;21827;-57
2021/12/29 08:56:09;;;;;;;29.05;20.40;;;;;;;-0.36;71.58;100265.08;1767360;79;21219;-59
2021/12/29 08:59:14;;;;;;;19.62;12.47;;;;;;;-0.30;71.55;100260.59;1765327;80;21263;-56
2021/12/29 09:02:22;;;;;;;17.10;11.30;;;;;;;-0.31;71.26;100257.07;1765237;80;21188;-55
2021/12/29 09:05:31;;;;;;;16.00;10.82;;;;;;;-0.30;71.19;100261.47;1766404;80;22005;-55
2021/12/29 09:08:42;;;;;;;17.95;11.48;;;;;;;-0.21;71.25;100259.45;1765956;80;21714;-55
2021/12/29 09:11:51;;;;;;;21.00;12.65;;;;;;;-0.24;70.74;100251.60;1761311;81;21617;-56
2021/12/29 09:14:58;;;;;;;20.50;12.45;;;;;;;-0.25;70.80;100245.86;1755825;81;21181;-56
2021/12/29 09:18:04;;;;;;;16.90;10.32;;;;;;;-0.31;70.70;100244.97;1764799;80;21173;-57
2021/12/29 09:21:14;;;;;;;19.90;11.75;;;;;;;-0.37;70.81;100245.41;1724342;81;21480;-56
2021/12/29 09:24:19;;;;;;;19.40;10.75;;;;;;;-0.42;71.07;100244.02;1747461;81;21256;-55
2021/12/29 09:27:28;;;;;;;21.65;14.18;;;;;;;-0.32;71.33;100250.46;1748002;81;21254;-56
2021/12/29 09:30:37;;;;;;;20.25;12.05;;;;;;;-0.23;71.30;100250.66;1766907;80;21222;-56
2021/12/29 09:33:49;;;;;;;23.38;12.30;;;;;;;-0.25;71.06;100247.68;1777195;80;21725;-56
2021/12/29 09:36:55;;;;;;;21.73;11.97;;;;;;;-0.15;71.35;100253.65;1705553;84;21252;-55
2021/12/29 09:40:01;;;;;;;23.77;12.33;;;;;;;0.02;71.39;100258.28;1758623;79;21300;-56
2021/12/29 09:43:07;;;;;;;22.73;12.93;;;;;;;0.12;71.00;100245.84;1783250;79;21313;-56
2021/12/29 09:46:13;;;;;;;22.15;13.05;;;;;;;0.12;70.79;100260.17;1767337;79;21799;-57
2021/12/29 09:49:19;;;;;;;20.30;11.90;;;;;;;0.14;70.80;100266.31;1761692;81;21165;-57
2021/12/29 09:52:29;;;;;;;21.77;11.97;;;;;;;0.21;70.80;100251.92;1763447;80;21590;-56
2021/12/29 09:55:32;;;;;;;27.35;13.50;;;;;;;0.24;70.62;100244.95;1762344;80;21608;-56
2021/12/29 09:58:38;;;;;;;19.55;12.75;;;;;;;0.27;70.53;100244.22;1771234;79;21537;-57
2021/12/29 10:01:44;;;;;;;25.15;15.32;;;;;;;0.36;70.56;100243.55;1786780;79;21335;-55
2021/12/29 10:04:56;;;;;;;29.32;15.00;;;;;;;0.40;70.14;100240.98;1779797;79;21765;-55
2021/12/29 10:08:17;;;;;;;24.43;15.43;;;;;;;0.28;69.77;100239.70;1761868;80;21197;-55
2021/12/29 10:11:26;;;;;;;27.45;14.30;;;;;;;0.28;70.17;100241.92;1752194;81;21470;-55
2021/12/29 10:14:35;;;;;;;24.12;15.08;;;;;;;0.38;70.15;100242.92;1749580;81;21291;-55
2021/12/29 10:17:41;;;;;;;26.75;15.53;;;;;;;0.39;70.11;100237.94;1742680;80;21194;-54
2021/12/29 10:21:02;;;;;;;21.45;12.47;;;;;;;0.45;69.95;100246.89;1762836;80;21204;-56
2021/12/29 10:24:10;;;;;;;20.75;12.23;;;;;;;0.30;69.48;100239.11;1746410;81;21189;-54
2021/12/29 10:27:20;;;;;;;25.95;14.58;;;;;;;0.24;69.88;100239.06;1722318;81;21200;-54
2021/12/29 10:30:37;;;;;;;22.32;14.20;;;;;;;0.19;69.92;100234.51;1751132;80;21198;-54
2021/12/29 10:33:48;;;;;;;26.90;15.83;;;;;;;0.16;70.10;100237.94;1745301;80;21876;-54
2021/12/29 10:37:01;;;;;;;51.98;30.37;;;;;;;0.16;70.54;100245.50;1734988;82;21232;-54
2021/12/29 10:40:16;;;;;;;45.98;26.80;;;;;;;0.16;70.63;100242.81;1733658;78;21246;-54
2021/12/29 10:43:23;;;;;;;35.70;20.12;;;;;;;0.18;70.79;100246.26;1679783;83;21263;-54
2021/12/29 10:46:31;;;;;;;34.03;18.15;;;;;;;0.05;70.69;100254.85;1690963;82;21214;-56
2021/12/29 10:49:37;;;;;;;30.50;16.77;;;;;;;0.08;71.08;100252.44;1675126;84;21784;-55
2021/12/29 10:52:51;;;;;;;23.10;13.88;;;;;;;0.16;71.33;100256.27;1661574;85;21228;-53
2021/12/29 10:55:56;;;;;;;27.13;15.28;;;;;;;0.19;71.04;100254.69;1685709;84;21230;-54
2021/12/29 10:59:07;;;;;;;20.95;13.60;;;;;;;0.11;70.71;100264.33;1679186;85;21711;-55
2021/12/29 11:02:19;;;;;;;24.72;13.48;;;;;;;-0.01;70.83;100259.34;1710704;82;21392;-53
2021/12/29 11:05:29;;;;;;;24.77;14.38;;;;;;;-0.06;70.89;100263.73;1737117;81;21426;-54
2021/12/29 11:08:57;;;;;;;22.42;13.10;;;;;;;-0.11;71.01;100263.67;1695644;84;21724;-54
2021/12/29 11:12:20;;;;;;;19.95;13.40;;;;;;;-0.11;71.42;100263.67;1721396;82;21317;-54
2021/12/29 11:15:31;;;;;;;28.07;15.48;;;;;;;0.09;71.73;100264.91;1662232;84;21934;-54
2021/12/29 11:18:51;;;;;;;24.00;15.53;;;;;;;0.21;71.62;100272.10;1661863;84;21205;-54
2021/12/29 11:21:57;;;;;;;27.32;16.93;;;;;;;0.36;71.58;100268.25;1697697;84;21221;-54
2021/12/29 11:25:07;;;;;;;24.55;15.83;;;;;;;0.49;71.33;100271.25;1684039;84;21212;-54
2021/12/29 11:28:13;;;;;;;23.75;16.20;;;;;;;0.59;70.92;100276.32;1718046;83;21539;-54
2021/12/29 11:31:19;;;;;;;26.42;18.07;;;;;;;0.58;70.49;100274.62;1720795;83;21298;-54
2021/12/29 11:34:32;;;;;;;27.00;17.67;;;;;;;0.55;70.08;100267.25;1698133;83;21223;-53
2021/12/29 11:37:39;;;;;;;27.80;18.85;;;;;;;0.40;69.77;100271.94;1695978;83;21278;-54
2021/12/29 11:40:47;;;;;;;34.43;22.20;;;;;;;0.24;69.85;100271.36;1730315;82;21193;-53
2021/12/29 11:43:53;;;;;;;27.42;16.12;;;;;;;0.08;69.98;100275.31;1681896;84;21219;-54
2021/12/29 11:46:59;;;;;;;21.73;13.98;;;;;;;0.12;70.69;100279.48;1716222;83;21204;-54
2021/12/29 11:50:05;;;;;;;20.88;12.33;;;;;;;0.28;70.96;100285.46;1745341;81;21332;-55
2021/12/29 11:53:30;;;;;;;19.48;12.35;;;;;;;0.40;70.65;100288.09;1755883;80;21309;-52
2021/12/29 11:56:40;;;;;;;37.48;20.25;;;;;;;0.25;70.16;100291.94;1755946;81;21247;-52
2021/12/29 11:59:45;;;;;;;30.65;19.55;;;;;;;0.18;70.53;100290.66;1725965;81;21210;-53
2021/12/29 12:02:51;;;;;;;31.20;19.12;;;;;;;0.25;70.66;100292.42;1679075;84;21369;-53
2021/12/29 12:05:59;;;;;;;29.35;18.05;;;;;;;0.21;70.39;100295.81;1746184;81;21896;-54
2021/12/29 12:09:27;;;;;;;27.93;18.00;;;;;;;0.04;70.19;100290.81;1757279;81;21204;-54
2021/12/29 12:12:42;;;;;;;24.85;15.90;;;;;;;-0.09;70.48;100293.55;1716520;81;21230;-53
2021/12/29 12:15:49;;;;;;;23.83;14.75;;;;;;;-0.18;70.66;100296.91;1711306;83;21465;-53
2021/12/29 12:19:03;;;;;;;24.27;13.70;;;;;;;-0.28;71.05;100304.38;1676852;84;21267;-54
2021/12/29 12:22:21;;;;;;;21.07;13.70;;;;;;;-0.29;71.36;100321.50;1742030;80;21215;-53
2021/12/29 12:25:34;;;;;;;23.55;14.75;;;;;;;-0.25;71.63;100327.02;1744016;80;21414;-54
2021/12/29 12:28:41;;;;;;;23.42;13.78;;;;;;;-0.25;71.65;100336.43;1737242;81;21256;-53
2021/12/29 12:31:46;;;;;;;26.30;15.35;;;;;;;-0.25;71.79;100339.12;1764807;80;21769;-52
2021/12/29 12:35:08;;;;;;;23.50;12.58;;;;;;;-0.27;71.93;100341.08;1770314;80;21259;-53
2021/12/29 12:38:39;;;;;;;27.50;13.80;;;;;;;-0.20;72.04;100344.56;1755455;80;21702;-53
2021/12/29 12:41:49;;;;;;;27.70;15.70;;;;;;;-0.31;71.54;100351.19;1748227;80;21209;-53
2021/12/29 12:44:57;;;;;;;22.25;12.35;;;;;;;-0.44;71.70;100352.14;1796333;79;21227;-53
2021/12/29 12:48:11;;;;;;;20.17;12.15;;;;;;;-0.52;72.12;100357.19;1766257;81;21764;-53
2021/12/29 12:51:25;;;;;;;27.80;17.07;;;;;;;-0.48;72.44;100351.52;1736092;82;21375;-53
2021/12/29 12:54:42;;;;;;;28.80;18.27;;;;;;;-0.55;72.29;100348.87;1736019;82;21394;-53
2021/12/29 12:57:55;;;;;;;25.85;15.58;;;;;;;-0.63;72.52;100364.66;1736022;82;21347;-53
2021/12/29 13:01:11;;;;;;;30.37;17.57;;;;;;;-0.56;72.91;100364.63;1753679;81;21405;-53
2021/12/29 13:04:26;;;;;;;28.20;17.32;;;;;;;-0.57;72.85;100370.12;1737785;81;22357;-55
2021/12/29 13:07:33;;;;;;;27.35;17.12;;;;;;;-0.53;73.05;100382.36;1753633;80;21841;-54
2021/12/29 13:10:45;;;;;;;28.25;16.77;;;;;;;-0.55;72.85;100386.98;1758197;80;21355;-54
2021/12/29 13:13:56;;;;;;;28.05;17.17;;;;;;;-0.54;73.03;100393.59;1744180;80;21382;-54
2021/12/29 13:17:03;;;;;;;23.83;14.98;;;;;;;-0.51;72.98;100386.65;1766266;81;21395;-53
2021/12/29 13:20:13;;;;;;;24.35;14.70;;;;;;;-0.51;73.01;100388.00;1743118;81;21728;-54
2021/12/29 13:23:20;;;;;;;27.40;15.60;;;;;;;-0.44;73.16;100389.30;1736323;82;21762;-54
2021/12/29 13:26:28;;;;;;;21.23;14.07;;;;;;;-0.40;73.04;100391.30;1749798;81;21829;-54
2021/12/29 13:29:33;;;;;;;24.55;14.87;;;;;;;-0.36;73.08;100389.64;1756564;81;21331;-54
2021/12/29 13:32:38;;;;;;;30.77;16.85;;;;;;;-0.38;72.73;100384.00;1763587;81;21727;-54
2021/12/29 13:35:46;;;;;;;28.77;16.93;;;;;;;-0.38;72.88;100389.37;1764903;80;21207;-54
2021/12/29 13:38:57;;;;;;;38.25;19.05;;;;;;;-0.38;72.76;100396.09;1766276;80;21315;-54
2021/12/29 13:42:02;;;;;;;37.25;19.27;;;;;;;-0.38;72.76;100393.41;1766760;80;21374;-54
2021/12/29 13:45:11;;;;;;;35.50;19.48;;;;;;;-0.43;72.72;100402.27;1777394;79;21724;-54
2021/12/29 13:48:27;;;;;;;34.60;19.42;;;;;;;-0.44;72.81;100405.91;1762522;80;21197;-55
2021/12/29 13:51:58;;;;;;;35.05;20.52;;;;;;;-0.49;72.74;100416.15;1763229;79;21208;-53
2021/12/29 13:55:40;;;;;;;38.42;21.52;;;;;;;-0.56;72.75;100406.30;1786881;79;21358;-55
2021/12/29 13:59:13;;;;;;;37.42;19.60;;;;;;;-0.68;72.92;100408.46;1743304;80;21545;-53
2021/12/29 14:02:47;;;;;;;36.45;20.77;;;;;;;-0.73;73.20;100413.28;1780749;79;21867;-55
2021/12/29 14:06:15;;;;;;;32.50;18.90;;;;;;;-0.76;73.43;100416.69;1769897;79;21240;-54
2021/12/29 14:09:22;;;;;;;30.85;19.25;;;;;;;-0.69;73.79;100423.34;1788384;79;21674;-55
2021/12/29 14:12:35;;;;;;;37.83;22.25;;;;;;;-0.71;73.51;100421.23;1788181;79;21244;-53
2021/12/29 14:15:42;;;;;;;40.17;23.52;;;;;;;-0.86;73.43;100423.63;1725378;82;21237;-54
2021/12/29 14:19:04;;;;;;;44.35;25.00;;;;;;;-0.83;73.85;100428.80;1738658;81;21340;-54
2021/12/29 14:22:11;;;;;;;39.63;21.70;;;;;;;-0.75;74.08;100433.17;1783221;80;21416;-57
2021/12/29 14:25:22;;;;;;;37.70;22.20;;;;;;;-0.67;74.12;100437.55;1780581;80;21372;-55
2021/12/29 14:28:32;;;;;;;;;;;;;;;-0.67;73.84;100433.52;1723322;81;21190;-54